sensor_id;sensor_type;location;lat;lon;timestamp;pressure;altitude;pressure_sealevel;temperature;humidity
45323;BME280;31382;50.200;8.674;2023-02-28T00:03:18;101490.22;;;3.34;52.98
45323;BME280;31382;50.200;8.674;2023-02-28T00:08:20;101489.00;;;3.26;52.76
45323;BME280;31382;50.200;8.674;2023-02-28T00:13:21;101486.88;;;3.18;52.99
45323;BME280;31382;50.200;8.674;2023-02-28T00:18:23;101487.16;;;3.13;52.90
45323;BME280;31382;50.200;8.674;2023-02-28T00:23:25;101489.88;;;3.12;53.41
45323;BME280;31382;50.200;8.674;2023-02-28T00:28:26;101492.47;;;3.13;53.12
45323;BME280;31382;50.200;8.674;2023-02-28T00:33:28;101485.56;;;3.11;53.69
45323;BME280;31382;50.200;8.674;2023-02-28T00:38:29;101490.88;;;3.11;53.81
45323;BME280;31382;50.200;8.674;2023-02-28T00:43:35;101499.13;;;3.06;53.79
45323;BME280;31382;50.200;8.674;2023-02-28T00:48:37;101490.28;;;3.06;53.60
45323;BME280;31382;50.200;8.674;2023-02-28T00:53:38;101491.94;;;2.94;53.75
45323;BME280;31382;50.200;8.674;2023-02-28T00:58:39;101491.50;;;2.87;54.31
45323;BME280;31382;50.200;8.674;2023-02-28T01:03:41;101503.78;;;2.88;54.18
45323;BME280;31382;50.200;8.674;2023-02-28T01:08:43;101495.59;;;2.78;54.54
45323;BME280;31382;50.200;8.674;2023-02-28T01:13:45;101490.00;;;2.69;55.06
45323;BME280;31382;50.200;8.674;2023-02-28T01:18:47;101487.25;;;2.56;54.96
45323;BME280;31382;50.200;8.674;2023-02-28T01:23:49;101482.44;;;2.48;55.14
45323;BME280;31382;50.200;8.674;2023-02-28T01:28:52;101481.00;;;2.43;55.70
45323;BME280;31382;50.200;8.674;2023-02-28T01:33:53;101481.59;;;2.33;55.49
45323;BME280;31382;50.200;8.674;2023-02-28T01:38:55;101475.13;;;2.23;56.73
45323;BME280;31382;50.200;8.674;2023-02-28T01:49:45;101473.53;;;2.06;56.53
45323;BME280;31382;50.200;8.674;2023-02-28T01:54:53;101471.16;;;2.02;57.27
45323;BME280;31382;50.200;8.674;2023-02-28T02:00:01;101470.41;;;2.00;56.99
45323;BME280;31382;50.200;8.674;2023-02-28T02:05:17;101461.84;;;1.94;56.74
45323;BME280;31382;50.200;8.674;2023-02-28T02:10:21;101460.25;;;1.92;57.58
45323;BME280;31382;50.200;8.674;2023-02-28T02:15:41;101458.91;;;1.85;57.61
45323;BME280;31382;50.200;8.674;2023-02-28T02:26:24;101456.78;;;1.75;57.69
45323;BME280;31382;50.200;8.674;2023-02-28T02:37:25;101455.34;;;1.70;57.04
45323;BME280;31382;50.200;8.674;2023-02-28T02:47:41;101461.38;;;1.57;57.46
45323;BME280;31382;50.200;8.674;2023-02-28T02:52:49;101453.34;;;1.59;58.31
45323;BME280;31382;50.200;8.674;2023-02-28T02:57:56;101459.69;;;1.56;57.80
45323;BME280;31382;50.200;8.674;2023-02-28T03:03:01;101462.50;;;1.53;57.44
45323;BME280;31382;50.200;8.674;2023-02-28T03:08:04;101457.66;;;1.46;57.86
45323;BME280;31382;50.200;8.674;2023-02-28T03:13:34;101460.88;;;1.36;58.99
45323;BME280;31382;50.200;8.674;2023-02-28T03:29:22;101463.56;;;1.21;59.24
45323;BME280;31382;50.200;8.674;2023-02-28T03:34:54;101460.03;;;1.20;58.45
45323;BME280;31382;50.200;8.674;2023-02-28T03:40:25;101462.47;;;1.09;59.37
45323;BME280;31382;50.200;8.674;2023-02-28T03:45:27;101462.34;;;1.10;59.09
45323;BME280;31382;50.200;8.674;2023-02-28T03:50:36;101459.81;;;1.09;59.05
45323;BME280;31382;50.200;8.674;2023-02-28T03:55:43;101460.72;;;1.08;59.92
45323;BME280;31382;50.200;8.674;2023-02-28T04:00:49;101463.47;;;1.06;59.92
45323;BME280;31382;50.200;8.674;2023-02-28T04:05:55;101465.19;;;1.07;59.85
45323;BME280;31382;50.200;8.674;2023-02-28T04:11:01;101471.31;;;1.08;60.43
45323;BME280;31382;50.200;8.674;2023-02-28T04:16:09;101464.22;;;1.08;59.38
45323;BME280;31382;50.200;8.674;2023-02-28T04:21:21;101465.19;;;1.07;59.35
45323;BME280;31382;50.200;8.674;2023-02-28T04:26:23;101466.78;;;1.10;59.55
45323;BME280;31382;50.200;8.674;2023-02-28T04:31:24;101467.84;;;1.07;59.80
45323;BME280;31382;50.200;8.674;2023-02-28T04:36:26;101461.78;;;1.05;59.63
45323;BME280;31382;50.200;8.674;2023-02-28T04:41:28;101459.19;;;1.04;59.43
45323;BME280;31382;50.200;8.674;2023-02-28T04:46:32;101467.75;;;1.09;60.21
45323;BME280;31382;50.200;8.674;2023-02-28T04:51:34;101466.78;;;1.10;60.20
45323;BME280;31382;50.200;8.674;2023-02-28T04:56:35;101461.91;;;1.18;59.31
45323;BME280;31382;50.200;8.674;2023-02-28T05:01:37;101461.13;;;1.32;59.78
45323;BME280;31382;50.200;8.674;2023-02-28T05:06:38;101461.72;;;1.37;60.07
45323;BME280;31382;50.200;8.674;2023-02-28T05:11:40;101464.00;;;1.43;59.46
45323;BME280;31382;50.200;8.674;2023-02-28T05:16:41;101457.50;;;1.49;59.16
45323;BME280;31382;50.200;8.674;2023-02-28T05:21:52;101477.28;;;1.57;59.60
45323;BME280;31382;50.200;8.674;2023-02-28T05:26:54;101477.28;;;1.57;60.17
45323;BME280;31382;50.200;8.674;2023-02-28T05:31:55;101482.34;;;1.62;59.40
45323;BME280;31382;50.200;8.674;2023-02-28T05:36:57;101477.53;;;1.69;59.36
45323;BME280;31382;50.200;8.674;2023-02-28T05:41:58;101481.78;;;1.71;59.59
45323;BME280;31382;50.200;8.674;2023-02-28T05:46:59;101477.06;;;1.76;59.64
45323;BME280;31382;50.200;8.674;2023-02-28T05:52:01;101494.56;;;1.79;59.59
45323;BME280;31382;50.200;8.674;2023-02-28T05:57:02;101489.34;;;1.77;58.74
45323;BME280;31382;50.200;8.674;2023-02-28T06:02:15;101481.59;;;1.74;59.34
45323;BME280;31382;50.200;8.674;2023-02-28T06:07:16;101479.22;;;1.70;59.55
45323;BME280;31382;50.200;8.674;2023-02-28T06:12:18;101486.91;;;1.74;59.40
45323;BME280;31382;50.200;8.674;2023-02-28T06:17:20;101490.13;;;1.79;58.89
45323;BME280;31382;50.200;8.674;2023-02-28T06:22:21;101489.94;;;1.83;58.88
45323;BME280;31382;50.200;8.674;2023-02-28T06:27:23;101493.38;;;1.85;58.75
45323;BME280;31382;50.200;8.674;2023-02-28T06:32:24;101488.34;;;1.80;58.50
45323;BME280;31382;50.200;8.674;2023-02-28T06:37:26;101502.63;;;1.77;58.41
45323;BME280;31382;50.200;8.674;2023-02-28T06:42:27;101512.56;;;1.74;58.90
45323;BME280;31382;50.200;8.674;2023-02-28T06:47:32;101519.75;;;1.72;58.37
45323;BME280;31382;50.200;8.674;2023-02-28T06:52:33;101523.41;;;1.69;59.00
45323;BME280;31382;50.200;8.674;2023-02-28T06:57:37;101522.66;;;1.67;58.52
45323;BME280;31382;50.200;8.674;2023-02-28T07:02:39;101524.94;;;1.73;58.85
45323;BME280;31382;50.200;8.674;2023-02-28T07:07:40;101529.13;;;1.77;59.33
45323;BME280;31382;50.200;8.674;2023-02-28T07:12:44;101534.84;;;1.86;58.73
45323;BME280;31382;50.200;8.674;2023-02-28T07:17:46;101533.59;;;1.91;58.62
45323;BME280;31382;50.200;8.674;2023-02-28T07:22:47;101542.31;;;1.93;58.56
45323;BME280;31382;50.200;8.674;2023-02-28T07:27:56;101532.91;;;2.04;59.05
45323;BME280;31382;50.200;8.674;2023-02-28T07:32:58;101530.13;;;2.05;58.64
45323;BME280;31382;50.200;8.674;2023-02-28T07:38:00;101525.72;;;2.20;58.36
45323;BME280;31382;50.200;8.674;2023-02-28T07:43:02;101528.13;;;2.39;57.92
45323;BME280;31382;50.200;8.674;2023-02-28T07:48:04;101534.47;;;2.51;58.36
45323;BME280;31382;50.200;8.674;2023-02-28T07:53:06;101541.38;;;2.68;58.03
45323;BME280;31382;50.200;8.674;2023-02-28T07:58:07;101545.91;;;2.80;57.87
45323;BME280;31382;50.200;8.674;2023-02-28T08:03:12;101537.75;;;2.97;57.78
45323;BME280;31382;50.200;8.674;2023-02-28T08:08:15;101536.47;;;3.17;57.17
45323;BME280;31382;50.200;8.674;2023-02-28T08:13:16;101535.69;;;3.30;56.75
45323;BME280;31382;50.200;8.674;2023-02-28T08:18:17;101531.56;;;3.38;56.84
45323;BME280;31382;50.200;8.674;2023-02-28T08:23:19;101531.31;;;3.56;56.08
45323;BME280;31382;50.200;8.674;2023-02-28T08:28:21;101534.88;;;3.69;56.03
45323;BME280;31382;50.200;8.674;2023-02-28T08:33:23;101527.75;;;3.83;55.56
45323;BME280;31382;50.200;8.674;2023-02-28T08:38:24;101528.31;;;4.01;54.91
45323;BME280;31382;50.200;8.674;2023-02-28T08:43:27;101529.75;;;4.19;53.95
45323;BME280;31382;50.200;8.674;2023-02-28T08:48:30;101534.75;;;4.24;53.08
45323;BME280;31382;50.200;8.674;2023-02-28T08:53:32;101533.06;;;4.35;52.37
45323;BME280;31382;50.200;8.674;2023-02-28T08:58:35;101539.75;;;4.54;52.04
45323;BME280;31382;50.200;8.674;2023-02-28T09:03:36;101532.59;;;4.67;51.16
45323;BME280;31382;50.200;8.674;2023-02-28T09:08:39;101533.44;;;4.81;50.66
45323;BME280;31382;50.200;8.674;2023-02-28T09:13:41;101521.56;;;4.97;50.30
45323;BME280;31382;50.200;8.674;2023-02-28T09:18:43;101527.72;;;5.11;49.94
45323;BME280;31382;50.200;8.674;2023-02-28T09:23:46;101524.72;;;5.15;49.41
45323;BME280;31382;50.200;8.674;2023-02-28T09:28:48;101520.88;;;5.20;48.44
45323;BME280;31382;50.200;8.674;2023-02-28T09:33:52;101521.00;;;5.18;48.30
45323;BME280;31382;50.200;8.674;2023-02-28T09:38:54;101521.38;;;5.25;47.38
45323;BME280;31382;50.200;8.674;2023-02-28T09:43:57;101512.81;;;5.32;47.59
45323;BME280;31382;50.200;8.674;2023-02-28T09:49:05;101514.06;;;5.40;47.21
45323;BME280;31382;50.200;8.674;2023-02-28T09:54:19;101513.63;;;5.46;46.32
45323;BME280;31382;50.200;8.674;2023-02-28T10:05:04;101521.53;;;5.59;45.68
45323;BME280;31382;50.200;8.674;2023-02-28T10:10:23;101515.63;;;5.55;45.74
45323;BME280;31382;50.200;8.674;2023-02-28T10:15:29;101517.94;;;5.60;45.21
45323;BME280;31382;50.200;8.674;2023-02-28T10:20:34;101512.97;;;5.66;45.23
45323;BME280;31382;50.200;8.674;2023-02-28T10:25:38;101516.22;;;5.94;44.16
45323;BME280;31382;50.200;8.674;2023-02-28T10:30:43;101523.81;;;6.11;43.96
45323;BME280;31382;50.200;8.674;2023-02-28T10:35:46;101518.25;;;6.26;43.73
45323;BME280;31382;50.200;8.674;2023-02-28T10:40:48;101505.56;;;6.52;43.37
45323;BME280;31382;50.200;8.674;2023-02-28T10:45:55;101517.69;;;6.67;43.02
45323;BME280;31382;50.200;8.674;2023-02-28T10:50:58;101504.69;;;6.74;42.93
45323;BME280;31382;50.200;8.674;2023-02-28T11:01:16;101502.25;;;6.93;42.00
45323;BME280;31382;50.200;8.674;2023-02-28T11:06:21;101505.53;;;6.97;41.42
45323;BME280;31382;50.200;8.674;2023-02-28T11:11:25;101505.25;;;7.11;41.59
45323;BME280;31382;50.200;8.674;2023-02-28T11:16:37;101491.88;;;7.23;40.73
45323;BME280;31382;50.200;8.674;2023-02-28T11:21:39;101483.91;;;7.32;41.01
45323;BME280;31382;50.200;8.674;2023-02-28T11:26:46;101489.31;;;7.53;40.79
45323;BME280;31382;50.200;8.674;2023-02-28T11:32:03;101490.88;;;7.56;40.56
45323;BME280;31382;50.200;8.674;2023-02-28T11:37:11;101472.28;;;7.54;40.12
45323;BME280;31382;50.200;8.674;2023-02-28T11:47:34;101476.59;;;7.34;39.71
45323;BME280;31382;50.200;8.674;2023-02-28T11:58:37;101479.38;;;7.44;39.47
45323;BME280;31382;50.200;8.674;2023-02-28T12:20:38;101462.91;;;7.81;39.23
45323;BME280;31382;50.200;8.674;2023-02-28T13:51:50;101416.28;;;10.58;34.50
45323;BME280;31382;50.200;8.674;2023-02-28T13:56:58;101407.69;;;10.82;34.22
45323;BME280;31382;50.200;8.674;2023-02-28T14:02:34;101408.94;;;11.06;33.93
45323;BME280;31382;50.200;8.674;2023-02-28T14:07:50;101399.16;;;11.23;33.83
45323;BME280;31382;50.200;8.674;2023-02-28T14:12:55;101401.38;;;11.27;33.76
45323;BME280;31382;50.200;8.674;2023-02-28T14:17:57;101395.22;;;11.35;33.63
45323;BME280;31382;50.200;8.674;2023-02-28T14:24:01;101391.84;;;11.33;33.06
45323;BME280;31382;50.200;8.674;2023-02-28T14:39:22;101380.31;;;11.41;32.97
45323;BME280;31382;50.200;8.674;2023-02-28T14:44:27;101380.53;;;11.47;33.27
45323;BME280;31382;50.200;8.674;2023-02-28T14:49:43;101377.94;;;11.38;33.02
45323;BME280;31382;50.200;8.674;2023-02-28T14:54:47;101379.16;;;11.25;33.62
45323;BME280;31382;50.200;8.674;2023-02-28T15:00:15;101378.25;;;11.17;33.58
45323;BME280;31382;50.200;8.674;2023-02-28T15:05:25;101375.31;;;11.28;33.67
45323;BME280;31382;50.200;8.674;2023-02-28T15:10:27;101376.94;;;11.65;33.62
45323;BME280;31382;50.200;8.674;2023-02-28T15:15:40;101373.25;;;12.18;32.51
45323;BME280;31382;50.200;8.674;2023-02-28T15:21:07;101372.75;;;12.15;32.87
45323;BME280;31382;50.200;8.674;2023-02-28T15:26:29;101380.41;;;11.75;32.64
45323;BME280;31382;50.200;8.674;2023-02-28T15:31:35;101380.44;;;11.57;32.69
45323;BME280;31382;50.200;8.674;2023-02-28T15:36:56;101374.47;;;11.45;32.79
45323;BME280;31382;50.200;8.674;2023-02-28T15:42:12;101383.31;;;11.02;33.69
45323;BME280;31382;50.200;8.674;2023-02-28T15:47:22;101376.66;;;11.06;33.41
45323;BME280;31382;50.200;8.674;2023-02-28T15:52:45;101373.28;;;11.04;33.37
45323;BME280;31382;50.200;8.674;2023-02-28T15:57:51;101384.91;;;10.59;33.59
45323;BME280;31382;50.200;8.674;2023-02-28T16:02:53;101383.91;;;10.22;34.02
45323;BME280;31382;50.200;8.674;2023-02-28T16:07:57;101383.13;;;10.02;33.98
45323;BME280;31382;50.200;8.674;2023-02-28T16:13:01;101390.44;;;9.72;34.30
45323;BME280;31382;50.200;8.674;2023-02-28T16:18:02;101385.81;;;9.45;34.65
45323;BME280;31382;50.200;8.674;2023-02-28T16:23:04;101384.56;;;9.20;34.92
45323;BME280;31382;50.200;8.674;2023-02-28T16:28:25;101389.63;;;8.94;35.31
45323;BME280;31382;50.200;8.674;2023-02-28T16:33:34;101407.34;;;8.66;35.83
45323;BME280;31382;50.200;8.674;2023-02-28T16:38:36;101411.94;;;8.44;35.71
45323;BME280;31382;50.200;8.674;2023-02-28T16:43:37;101417.31;;;8.23;36.74
45323;BME280;31382;50.200;8.674;2023-02-28T16:48:39;101415.53;;;8.03;36.92
45323;BME280;31382;50.200;8.674;2023-02-28T16:53:42;101431.50;;;7.83;37.02
45323;BME280;31382;50.200;8.674;2023-02-28T16:58:44;101433.19;;;7.63;37.89
45323;BME280;31382;50.200;8.674;2023-02-28T17:03:46;101434.47;;;7.48;38.32
45323;BME280;31382;50.200;8.674;2023-02-28T17:08:48;101444.81;;;7.20;38.51
45323;BME280;31382;50.200;8.674;2023-02-28T17:13:50;101451.69;;;6.90;38.89
45323;BME280;31382;50.200;8.674;2023-02-28T17:18:58;101452.22;;;6.73;38.83
45323;BME280;31382;50.200;8.674;2023-02-28T17:24:00;101457.47;;;6.52;39.26
45323;BME280;31382;50.200;8.674;2023-02-28T17:29:01;101467.31;;;6.29;39.47
45323;BME280;31382;50.200;8.674;2023-02-28T17:34:03;101471.78;;;6.17;40.16
45323;BME280;31382;50.200;8.674;2023-02-28T17:39:09;101468.34;;;6.04;40.36
45323;BME280;31382;50.200;8.674;2023-02-28T17:44:13;101472.06;;;5.90;40.82
45323;BME280;31382;50.200;8.674;2023-02-28T17:49:15;101482.56;;;5.80;40.38
45323;BME280;31382;50.200;8.674;2023-02-28T17:54:17;101491.00;;;5.63;40.89
45323;BME280;31382;50.200;8.674;2023-02-28T17:59:19;101498.34;;;5.48;41.11
45323;BME280;31382;50.200;8.674;2023-02-28T18:04:20;101506.53;;;5.33;41.37
45323;BME280;31382;50.200;8.674;2023-02-28T18:09:22;101506.47;;;5.22;42.04
45323;BME280;31382;50.200;8.674;2023-02-28T18:14:24;101502.59;;;5.02;42.27
45323;BME280;31382;50.200;8.674;2023-02-28T18:19:26;101507.84;;;4.91;42.63
45323;BME280;31382;50.200;8.674;2023-02-28T18:24:27;101514.91;;;4.79;43.18
45323;BME280;31382;50.200;8.674;2023-02-28T18:29:29;101511.41;;;4.66;43.80
45323;BME280;31382;50.200;8.674;2023-02-28T18:34:31;101516.97;;;4.63;43.64
45323;BME280;31382;50.200;8.674;2023-02-28T18:39:33;101519.31;;;4.54;44.09
45323;BME280;31382;50.200;8.674;2023-02-28T18:44:36;101515.38;;;4.47;44.35
45323;BME280;31382;50.200;8.674;2023-02-28T18:49:37;101512.72;;;4.34;44.56
45323;BME280;31382;50.200;8.674;2023-02-28T18:54:38;101523.03;;;4.26;44.94
45323;BME280;31382;50.200;8.674;2023-02-28T18:59:40;101518.03;;;4.22;45.13
45323;BME280;31382;50.200;8.674;2023-02-28T19:04:42;101517.25;;;4.07;45.23
45323;BME280;31382;50.200;8.674;2023-02-28T19:09:43;101515.25;;;3.97;45.98
45323;BME280;31382;50.200;8.674;2023-02-28T19:14:45;101522.50;;;3.95;46.27
45323;BME280;31382;50.200;8.674;2023-02-28T19:19:46;101519.38;;;3.89;46.27
45323;BME280;31382;50.200;8.674;2023-02-28T19:24:49;101519.50;;;3.87;46.51
45323;BME280;31382;50.200;8.674;2023-02-28T19:29:51;101516.63;;;3.90;46.66
45323;BME280;31382;50.200;8.674;2023-02-28T19:34:53;101521.19;;;3.88;46.78
45323;BME280;31382;50.200;8.674;2023-02-28T19:39:54;101516.94;;;3.86;46.62
45323;BME280;31382;50.200;8.674;2023-02-28T19:44:57;101520.53;;;3.85;46.47
45323;BME280;31382;50.200;8.674;2023-02-28T19:49:58;101519.03;;;3.81;46.76
45323;BME280;31382;50.200;8.674;2023-02-28T19:55:00;101528.50;;;3.72;47.03
45323;BME280;31382;50.200;8.674;2023-02-28T20:00:01;101530.69;;;3.65;47.59
45323;BME280;31382;50.200;8.674;2023-02-28T20:05:05;101534.41;;;3.63;47.69
45323;BME280;31382;50.200;8.674;2023-02-28T20:10:06;101523.44;;;3.54;47.92
45323;BME280;31382;50.200;8.674;2023-02-28T20:15:08;101530.09;;;3.47;48.29
45323;BME280;31382;50.200;8.674;2023-02-28T20:20:10;101522.88;;;3.49;47.66
45323;BME280;31382;50.200;8.674;2023-02-28T20:25:11;101520.53;;;3.45;48.43
45323;BME280;31382;50.200;8.674;2023-02-28T20:30:13;101516.19;;;3.44;48.25
45323;BME280;31382;50.200;8.674;2023-02-28T20:35:14;101509.06;;;3.44;48.32
45323;BME280;31382;50.200;8.674;2023-02-28T20:40:17;101517.88;;;3.45;48.59
45323;BME280;31382;50.200;8.674;2023-02-28T20:45:18;101515.22;;;3.45;48.27
45323;BME280;31382;50.200;8.674;2023-02-28T20:50:20;101517.13;;;3.43;48.45
45323;BME280;31382;50.200;8.674;2023-02-28T20:55:21;101513.28;;;3.34;49.00
45323;BME280;31382;50.200;8.674;2023-02-28T21:00:23;101516.78;;;3.34;49.03
45323;BME280;31382;50.200;8.674;2023-02-28T21:05:26;101514.22;;;3.33;48.35
45323;BME280;31382;50.200;8.674;2023-02-28T21:10:27;101501.03;;;3.31;49.42
45323;BME280;31382;50.200;8.674;2023-02-28T21:15:29;101502.19;;;3.27;49.46
45323;BME280;31382;50.200;8.674;2023-02-28T21:20:30;101496.97;;;3.26;49.49
45323;BME280;31382;50.200;8.674;2023-02-28T21:25:32;101500.59;;;3.25;49.30
45323;BME280;31382;50.200;8.674;2023-02-28T21:30:35;101514.63;;;3.27;49.63
45323;BME280;31382;50.200;8.674;2023-02-28T21:35:37;101501.66;;;3.22;49.27
45323;BME280;31382;50.200;8.674;2023-02-28T21:40:38;101502.81;;;3.18;49.32
45323;BME280;31382;50.200;8.674;2023-02-28T21:45:39;101505.56;;;3.16;49.92
45323;BME280;31382;50.200;8.674;2023-02-28T21:50:41;101504.59;;;3.17;49.53
45323;BME280;31382;50.200;8.674;2023-02-28T21:55:42;101507.72;;;3.10;49.71
45323;BME280;31382;50.200;8.674;2023-02-28T22:00:44;101503.09;;;3.13;49.88
45323;BME280;31382;50.200;8.674;2023-02-28T22:05:46;101509.63;;;3.08;49.71
45323;BME280;31382;50.200;8.674;2023-02-28T22:10:47;101509.75;;;3.06;49.94
45323;BME280;31382;50.200;8.674;2023-02-28T22:15:49;101518.88;;;3.02;50.04
45323;BME280;31382;50.200;8.674;2023-02-28T22:20:54;101513.19;;;2.94;50.49
45323;BME280;31382;50.200;8.674;2023-02-28T22:25:56;101520.41;;;2.92;50.78
45323;BME280;31382;50.200;8.674;2023-02-28T22:31:00;101515.00;;;2.93;50.64
45323;BME280;31382;50.200;8.674;2023-02-28T22:36:14;101514.91;;;2.95;50.63
45323;BME280;31382;50.200;8.674;2023-02-28T22:41:21;101522.97;;;2.93;51.21
45323;BME280;31382;50.200;8.674;2023-02-28T22:46:24;101522.97;;;2.93;50.74
45323;BME280;31382;50.200;8.674;2023-02-28T22:51:26;101518.31;;;2.97;50.79
45323;BME280;31382;50.200;8.674;2023-02-28T22:56:29;101524.69;;;2.94;50.61
45323;BME280;31382;50.200;8.674;2023-02-28T23:01:32;101528.28;;;2.93;50.99
45323;BME280;31382;50.200;8.674;2023-02-28T23:06:36;101536.94;;;2.83;50.98
45323;BME280;31382;50.200;8.674;2023-02-28T23:11:44;101537.88;;;2.82;51.09
45323;BME280;31382;50.200;8.674;2023-02-28T23:16:52;101530.09;;;2.78;51.62
45323;BME280;31382;50.200;8.674;2023-02-28T23:21:57;101529.13;;;2.80;51.83
45323;BME280;31382;50.200;8.674;2023-02-28T23:27:02;101527.25;;;2.82;51.62
45323;BME280;31382;50.200;8.674;2023-02-28T23:32:04;101531.50;;;2.84;51.13
45323;BME280;31382;50.200;8.674;2023-02-28T23:37:06;101524.50;;;2.83;51.02
45323;BME280;31382;50.200;8.674;2023-02-28T23:42:07;101523.91;;;2.78;51.31
45323;BME280;31382;50.200;8.674;2023-02-28T23:47:09;101524.03;;;2.76;51.80
45323;BME280;31382;50.200;8.674;2023-02-28T23:52:13;101528.38;;;2.77;51.51
45323;BME280;31382;50.200;8.674;2023-02-28T23:57:14;101521.38;;;2.76;51.68
